ADDS METAR Data INFO
IDs: Format: Raw Decoded Include TAF

Data at: 2241 UTC 22 Aug 2017

KLRD 222156Z 10008KT 10SM FEW070 SCT110 37/19 A2994 RMK AO2 SLP135 T03720194 $
KLRD 222056Z VRB06G14KT 10SM SCT070 38/20 A2996 RMK AO2 SLP143 T03780200 58025 $
KLRD 221956Z 09010KT 10SM FEW065 SCT085 37/20 A2999 RMK AO2 SLP153 T03670200 $
KLRD 221856Z 10007KT 10SM SCT055 35/20 A3002 RMK AO2 SLP163 T03500200 $
KLRD 221756Z 19003KT 10SM FEW050 34/20 A3004 RMK AO2 SLP170 T03390200 10350 20244 58001 $
KLRD 221656Z 16004KT 10SM CLR 33/22 A3005 RMK AO2 SLP173 T03330217 $
KLRD 221556Z 13003KT 10SM CLR 31/22 A3005 RMK AO2 SLP173 T03060222 $
KLRD 221456Z 13003KT 10SM CLR 29/23 A3004 RMK AO2 SLP171 T02940228 53010 $
KLRD 221356Z 14006KT 10SM CLR 28/23 A3003 RMK AO2 SLP166 T02780233 $
KLRD 221256Z 09005KT 10SM CLR 25/23 A3002 RMK AO2 SLP163 T02500228 $
KLRD 221156Z 10004KT 10SM CLR 24/23 A3001 RMK AO2 SLP160 T02440228 10278 20244 55007 $
KLRD 221056Z 10005KT 10SM CLR 25/23 A3001 RMK AO2 SLP160 T02500228 $
KLRD 220956Z AUTO 12007KT 10SM CLR 26/23 A3001 RMK AO2 SLP161 T02560228 $
KLRD 220856Z AUTO 12007KT 10SM CLR 26/23 A3003 RMK AO2 SLP167 T02610228 56010 $
KLRD 220756Z AUTO 12007KT 10SM CLR 27/23 A3004 RMK AO2 SLP169 T02670228 $
KLRD 220656Z AUTO 13009KT 10SM CLR 27/22 A3005 RMK AO2 SLP174 T02720222 $
KLRD 220556Z AUTO 13011KT 10SM CLR 28/22 A3007 RMK AO2 SLP179 T02780217 10372 20278 403780250 51020 $
KLRD 220456Z AUTO 13014KT 10SM CLR 29/22 A3006 RMK AO2 SLP177 T02890222 $
KLRD 220356Z 13017G22KT 10SM CLR 30/22 A3004 RMK AO2 SLP171 T03000217 $
KLRD 220256Z 12019G24KT 10SM CLR 32/21 A3000 RMK AO2 PK WND 12027/0243 SLP158 T03170206 53025 $
KLRD 220156Z 11011KT 10SM CLR 33/19 A2997 RMK AO2 SLP146 T03330194 $
KLRD 220056Z 12009KT 10SM BKN100 35/19 A2994 RMK AO2 SLP138 T03500194 $
KLRD 212356Z 07013G17KT 10SM BKN080 BKN100 37/19 A2993 RMK AO2 SLP132 T03720189 10378 20333 56016 $
KLRD 212256Z 11006KT 10SM FEW075 37/19 A2994 RMK AO2 SLP137 T03670189 $
KLRD 212156Z 12008KT 10SM SCT075 SCT095 37/19 A2996 RMK AO2 SLP142 T03670189 $
KLRD 212056Z 10007KT 040V130 10SM CLR 37/19 A2998 RMK AO2 SLP148 T03670194 58018 $
KLRD 211956Z 07010KT 10SM SCT060 BKN075 35/20 A3000 RMK AO2 SLP157 T03500200 $
KLRD 211856Z 10006KT 10SM SCT060 BKN070 34/21 A3002 RMK AO2 SLP162 T03440206 $
KLRD 211756Z 14006G14KT 10SM SCT055 33/20 A3003 RMK AO2 SLP166 T03330200 10339 20250 58003 $
KLRD 211656Z 13011G14KT 10SM FEW046 34/21 A3004 RMK AO2 SLP169 T03390206 $
KLRD 211556Z 13011KT 10SM SCT035 32/22 A3005 RMK AO2 SLP172 T03220222 $
KLRD 211456Z 15011KT 10SM FEW021 30/23 A3004 RMK AO2 SLP170 T03000228 51006 $
KLRD 211356Z 13007KT 10SM CLR 28/24 A3004 RMK AO2 SLP169 T02780239 $
KLRD 211256Z 09006KT 10SM CLR 26/23 A3003 RMK AO2 SLP166 T02560233 $
KLRD 211156Z 11004KT 10SM CLR 25/23 A3002 RMK AO2 SLP163 T02500233 10283 20250 52002 $
KLRD 211056Z 12007KT 10SM CLR 26/23 A3002 RMK AO2 SLP162 T02560228 $